Time;durP1;ratioP1;P1;durP2;ratioP2;P2;SDS_P1;SDS_P2;PMS_P1;PMS_P2;Temp;Humidity;BMP_temperature;BMP_pressure;BME280_temperature;BME280_humidity;BME280_pressure;Samples;Min_cycle;Max_cycle;Signal;HPM_P1;HPM_P2
2023/04/24 00:01:16;;;;;;;9.10;5.58;;;11.00;91.70;;;;;;1905362;75;21126;-55
2023/04/24 00:03:45;;;;;;;9.78;6.50;;;11.00;91.70;;;;;;1868920;77;21086;-55
2023/04/24 00:06:16;;;;;;;10.82;5.75;;;10.90;91.60;;;;;;1905446;75;21095;-55
2023/04/24 00:08:45;;;;;;;8.45;5.17;;;10.90;91.70;;;;;;1905426;75;21067;-55
2023/04/24 00:11:14;;;;;;;10.13;5.78;;;10.90;91.70;;;;;;1868932;77;21600;-55
2023/04/24 00:13:43;;;;;;;9.08;5.75;;;10.80;91.70;;;;;;1905466;74;21258;-55
2023/04/24 00:16:12;;;;;;;7.72;5.25;;;10.70;91.80;;;;;;1868817;77;21154;-53
2023/04/24 00:18:42;;;;;;;8.88;5.70;;;10.70;91.80;;;;;;1920644;74;21425;-55
2023/04/24 00:21:11;;;;;;;8.18;5.58;;;10.70;91.80;;;;;;1924686;74;21058;-54
2023/04/24 00:23:40;;;;;;;8.48;6.60;;;10.70;91.90;;;;;;1924774;74;21190;-55
2023/04/24 00:26:09;;;;;;;9.33;5.50;;;10.60;91.80;;;;;;1887770;76;21298;-55
2023/04/24 00:28:39;;;;;;;9.95;6.30;;;10.60;91.90;;;;;;1878001;76;21050;-55
2023/04/24 00:31:08;;;;;;;10.85;6.42;;;10.60;91.90;;;;;;1877955;76;21232;-55
2023/04/24 00:33:37;;;;;;;9.18;5.87;;;10.50;92.00;;;;;;1878098;76;21205;-55
2023/04/24 00:36:07;;;;;;;9.45;5.22;;;10.60;92.00;;;;;;1877958;76;21238;-54
2023/04/24 00:38:36;;;;;;;7.55;5.65;;;10.60;92.20;;;;;;1877918;76;21299;-55
2023/04/24 00:41:05;;;;;;;8.93;5.65;;;10.70;92.20;;;;;;1878044;76;21253;-55
2023/04/24 00:43:35;;;;;;;7.30;5.42;;;10.70;92.10;;;;;;1878011;76;21256;-55
2023/04/24 00:46:05;;;;;;;9.75;6.17;;;10.70;92.10;;;;;;1877913;76;21177;-55
2023/04/24 00:48:35;;;;;;;9.85;6.15;;;10.70;92.10;;;;;;1877939;76;21222;-55
2023/04/24 00:51:04;;;;;;;12.63;5.97;;;10.80;92.10;;;;;;1878103;76;21082;-54
2023/04/24 00:53:33;;;;;;;9.15;6.03;;;10.80;92.10;;;;;;1877941;76;21209;-55
2023/04/24 00:56:03;;;;;;;9.28;6.55;;;10.80;92.00;;;;;;1878106;76;21277;-53
2023/04/24 00:58:32;;;;;;;11.18;6.75;;;10.80;91.80;;;;;;1878156;76;21287;-55
2023/04/24 01:01:02;;;;;;;12.05;7.35;;;10.60;91.80;;;;;;1878189;76;21107;-55
2023/04/24 01:03:32;;;;;;;8.80;6.30;;;10.60;92.00;;;;;;1878210;76;21209;-55
2023/04/24 01:06:01;;;;;;;9.53;6.58;;;10.60;92.10;;;;;;1878205;76;21162;-55
2023/04/24 01:08:30;;;;;;;10.70;6.30;;;10.60;92.20;;;;;;1878232;76;21121;-55
2023/04/24 01:11:00;;;;;;;8.33;6.00;;;10.60;92.10;;;;;;1878268;76;21168;-54
2023/04/24 01:13:30;;;;;;;7.55;6.33;;;10.60;92.00;;;;;;1878203;76;21080;-55
2023/04/24 01:15:59;;;;;;;9.33;5.90;;;10.60;92.10;;;;;;1878266;76;21116;-55
2023/04/24 01:18:29;;;;;;;10.13;6.25;;;10.60;92.10;;;;;;1875020;76;21362;-55
2023/04/24 01:21:00;;;;;;;9.83;5.75;;;10.60;92.10;;;;;;1871462;77;21270;-55
2023/04/24 01:23:29;;;;;;;10.28;6.20;;;10.50;92.10;;;;;;1871508;77;21023;-55
2023/04/24 01:25:59;;;;;;;11.12;5.92;;;10.60;92.10;;;;;;1871397;77;21276;-55
2023/04/24 01:28:28;;;;;;;8.80;6.42;;;10.60;92.10;;;;;;1871300;77;21211;-55
2023/04/24 01:30:57;;;;;;;9.80;6.97;;;10.60;92.10;;;;;;1871434;77;21225;-55
2023/04/24 01:33:27;;;;;;;8.60;5.80;;;10.50;92.00;;;;;;1871367;77;21156;-54
2023/04/24 01:35:56;;;;;;;9.88;6.10;;;10.50;92.10;;;;;;1871531;77;21131;-54
2023/04/24 01:38:25;;;;;;;9.18;6.62;;;10.50;92.10;;;;;;1871388;77;21207;-54
2023/04/24 01:40:54;;;;;;;12.37;6.60;;;10.50;92.20;;;;;;1871363;77;21202;-55
2023/04/24 01:43:24;;;;;;;8.88;7.00;;;10.50;92.20;;;;;;1871557;77;21173;-54
2023/04/24 01:45:53;;;;;;;10.32;6.42;;;10.50;92.10;;;;;;1871510;77;21172;-54
2023/04/24 01:48:23;;;;;;;16.40;5.85;;;10.40;92.00;;;;;;1871317;77;21099;-54
2023/04/24 01:50:52;;;;;;;8.90;5.75;;;10.30;92.00;;;;;;1871365;76;21137;-55
2023/04/24 01:53:21;;;;;;;11.97;6.60;;;10.30;91.90;;;;;;1871310;76;21248;-54
2023/04/24 01:55:50;;;;;;;10.13;6.47;;;10.20;92.10;;;;;;1871361;77;21080;-54
2023/04/24 01:58:19;;;;;;;8.83;5.53;;;10.20;92.20;;;;;;1871355;77;21202;-54
2023/04/24 02:00:48;;;;;;;9.18;6.58;;;10.20;92.30;;;;;;1871334;76;21093;-54
2023/04/24 02:03:17;;;;;;;12.55;6.28;;;10.20;92.40;;;;;;1871301;77;21100;-54
2023/04/24 02:05:46;;;;;;;9.08;5.55;;;10.20;92.40;;;;;;1871344;77;21342;-53
2023/04/24 02:08:15;;;;;;;12.18;6.87;;;10.30;92.30;;;;;;1871278;77;21252;-55
2023/04/24 02:10:44;;;;;;;12.40;6.55;;;10.30;92.20;;;;;;1871422;77;21356;-54
2023/04/24 02:13:13;;;;;;;12.85;7.60;;;10.20;92.20;;;;;;1871330;77;21206;-54
2023/04/24 02:15:44;;;;;;;11.68;6.37;;;10.30;92.30;;;;;;1871331;77;21294;-55
2023/04/24 02:18:13;;;;;;;10.48;6.60;;;10.20;92.20;;;;;;1870107;77;21115;-54
2023/04/24 02:20:42;;;;;;;11.60;6.37;;;10.30;92.30;;;;;;1905403;75;21158;-54
2023/04/24 02:23:13;;;;;;;13.98;6.50;;;10.30;92.20;;;;;;1905285;75;21137;-54
2023/04/24 02:25:42;;;;;;;12.95;6.35;;;10.30;92.20;;;;;;1905443;75;21177;-54
2023/04/24 02:28:11;;;;;;;10.45;6.20;;;10.30;92.20;;;;;;1905360;75;21083;-54
2023/04/24 02:30:41;;;;;;;10.50;6.67;;;10.30;92.20;;;;;;1905335;75;21192;-54
2023/04/24 02:33:10;;;;;;;10.58;6.20;;;10.30;92.30;;;;;;1905264;75;21202;-53
2023/04/24 02:35:39;;;;;;;10.28;5.58;;;10.20;92.30;;;;;;1905422;75;21311;-54
2023/04/24 02:38:08;;;;;;;10.20;6.37;;;10.30;92.40;;;;;;1905538;75;21099;-55
2023/04/24 02:40:37;;;;;;;11.78;6.75;;;10.30;92.40;;;;;;1905586;74;21272;-54
2023/04/24 02:43:07;;;;;;;9.45;6.30;;;10.30;92.30;;;;;;1905413;75;21613;-53
2023/04/24 02:45:37;;;;;;;9.10;6.12;;;10.30;92.30;;;;;;1868969;77;21330;-54
2023/04/24 02:48:06;;;;;;;11.03;6.08;;;10.30;92.30;;;;;;1905481;75;21130;-54
2023/04/24 02:50:36;;;;;;;9.53;5.92;;;10.30;92.30;;;;;;1905585;75;21498;-54
2023/04/24 02:53:05;;;;;;;10.72;6.53;;;10.30;92.40;;;;;;1868958;77;21728;-54
2023/04/24 02:55:34;;;;;;;11.45;5.87;;;10.30;92.50;;;;;;1905562;75;21123;-54
2023/04/24 02:58:04;;;;;;;8.40;6.08;;;10.40;92.50;;;;;;1905440;75;21261;-54
2023/04/24 03:00:33;;;;;;;14.58;8.03;;;10.40;92.60;;;;;;1869101;77;21244;-54
2023/04/24 03:03:02;;;;;;;9.68;6.15;;;10.50;92.60;;;;;;1905395;75;21004;-55
2023/04/24 03:05:31;;;;;;;10.23;6.67;;;10.60;92.50;;;;;;1869164;77;21138;-54
2023/04/24 03:08:00;;;;;;;8.25;6.40;;;10.60;92.40;;;;;;1905446;75;21173;-53
2023/04/24 03:10:29;;;;;;;9.45;5.35;;;10.60;92.40;;;;;;1905414;74;21126;-54
2023/04/24 03:12:58;;;;;;;10.38;6.58;;;10.60;92.40;;;;;;1868947;77;21026;-54
2023/04/24 03:15:28;;;;;;;8.43;6.05;;;10.60;92.40;;;;;;1905421;75;21200;-54
2023/04/24 03:17:57;;;;;;;11.78;7.08;;;10.60;92.40;;;;;;1868909;75;21141;-54
2023/04/24 03:20:27;;;;;;;14.87;7.72;;;10.60;92.50;;;;;;1920375;74;21153;-54
2023/04/24 03:22:56;;;;;;;9.68;6.42;;;10.60;92.60;;;;;;1924827;74;21308;-54
2023/04/24 03:25:26;;;;;;;11.00;6.28;;;10.60;92.60;;;;;;1924713;74;21448;-54
2023/04/24 03:27:57;;;;;;;10.68;6.95;;;10.60;92.70;;;;;;1924764;74;21176;-52
2023/04/24 03:30:27;;;;;;;13.53;6.53;;;10.60;92.70;;;;;;1917191;74;21160;-54
2023/04/24 03:32:58;;;;;;;9.53;6.70;;;10.60;92.60;;;;;;1924428;74;21161;-54
2023/04/24 03:35:29;;;;;;;12.10;7.05;;;10.70;92.60;;;;;;1924765;73;21420;-55
2023/04/24 03:37:58;;;;;;;16.25;8.58;;;10.70;92.60;;;;;;1924839;74;21275;-54
2023/04/24 03:40:45;;;;;;;10.55;7.15;;;10.70;92.70;;;;;;1924793;74;21170;-54
2023/04/24 03:43:18;;;;;;;11.63;6.87;;;10.70;92.60;;;;;;1923086;74;21536;-53
2023/04/24 03:45:48;;;;;;;9.43;6.00;;;10.70;92.60;;;;;;1904178;74;21170;-54
2023/04/24 03:48:18;;;;;;;11.10;7.78;;;10.70;92.70;;;;;;1924844;74;21200;-54
2023/04/24 03:50:48;;;;;;;11.38;7.20;;;10.70;92.80;;;;;;1924790;74;21240;-54
2023/04/24 03:53:17;;;;;;;12.82;7.08;;;10.60;92.70;;;;;;1924827;74;21251;-55
2023/04/24 03:55:47;;;;;;;11.15;6.62;;;10.60;92.90;;;;;;1924857;74;21176;-54
2023/04/24 03:58:17;;;;;;;15.20;7.58;;;10.60;93.10;;;;;;1924602;74;21687;-54
2023/04/24 04:00:47;;;;;;;13.38;8.38;;;10.50;93.00;;;;;;1924729;74;21385;-55
2023/04/24 04:03:21;;;;;;;11.38;7.70;;;10.50;93.20;;;;;;1922102;74;21241;-55
2023/04/24 04:05:50;;;;;;;11.63;7.72;;;10.50;93.20;;;;;;1924740;74;21263;-53
2023/04/24 04:08:20;;;;;;;11.78;7.45;;;10.40;93.20;;;;;;1924663;74;21260;-54
2023/04/24 04:10:50;;;;;;;11.95;7.20;;;10.40;93.20;;;;;;1924752;74;21126;-55
2023/04/24 04:13:19;;;;;;;11.28;7.22;;;10.40;93.40;;;;;;1924655;74;21138;-55
2023/04/24 04:15:48;;;;;;;13.55;7.70;;;10.40;93.30;;;;;;1924780;74;21150;-55
2023/04/24 04:18:18;;;;;;;13.38;7.95;;;10.40;93.50;;;;;;1924660;74;21410;-55
2023/04/24 04:20:47;;;;;;;16.77;7.75;;;10.40;93.50;;;;;;1924644;74;21197;-53
2023/04/24 04:23:18;;;;;;;9.55;7.05;;;10.40;93.30;;;;;;1924512;74;21193;-54
2023/04/24 04:25:49;;;;;;;12.98;8.53;;;10.40;93.70;;;;;;1923639;74;21222;-54
2023/04/24 04:28:21;;;;;;;11.93;7.35;;;10.40;93.40;;;;;;1924191;74;21141;-55
2023/04/24 04:30:53;;;;;;;15.25;8.80;;;10.40;93.50;;;;;;1924889;74;21094;-55
2023/04/24 04:33:22;;;;;;;11.22;7.08;;;10.50;93.40;;;;;;1924794;74;21259;-54
2023/04/24 04:35:56;;;;;;;10.72;7.20;;;10.40;93.40;;;;;;1924879;74;21134;-55
2023/04/24 04:38:26;;;;;;;14.65;10.13;;;10.40;93.40;;;;;;1924901;74;21189;-54
2023/04/24 04:40:57;;;;;;;10.38;7.78;;;10.40;93.70;;;;;;1923698;74;21229;-55
2023/04/24 04:43:28;;;;;;;11.95;7.37;;;10.40;93.60;;;;;;1924658;73;21141;-55
2023/04/24 04:45:58;;;;;;;12.33;7.92;;;10.40;93.70;;;;;;1924754;74;21250;-54
2023/04/24 04:48:31;;;;;;;14.13;8.90;;;10.40;93.80;;;;;;1924666;74;21182;-55
2023/04/24 04:51:02;;;;;;;13.45;8.68;;;10.40;93.80;;;;;;1924827;74;21173;-54
2023/04/24 04:53:31;;;;;;;15.10;7.97;;;10.50;93.80;;;;;;1924842;74;21263;-54
2023/04/24 04:56:00;;;;;;;10.25;7.20;;;10.50;93.80;;;;;;1924663;74;21556;-55
2023/04/24 04:58:31;;;;;;;13.88;8.23;;;10.50;93.50;;;;;;1923710;74;21290;-54
2023/04/24 05:01:01;;;;;;;19.42;8.48;;;10.60;93.60;;;;;;1924723;74;21295;-55
2023/04/24 05:03:32;;;;;;;14.93;7.87;;;10.60;93.70;;;;;;1924353;74;21659;-55
2023/04/24 05:06:05;;;;;;;19.00;7.08;;;10.60;93.80;;;;;;1922383;74;21624;-55
2023/04/24 05:08:36;;;;;;;15.15;8.03;;;10.70;93.50;;;;;;1924762;74;21745;-55
2023/04/24 05:11:07;;;;;;;16.15;8.28;;;10.70;93.60;;;;;;1924720;74;21346;-55
2023/04/24 05:13:36;;;;;;;12.40;7.78;;;10.70;93.60;;;;;;1924611;74;21235;-53
2023/04/24 05:16:07;;;;;;;12.00;7.40;;;10.80;93.50;;;;;;1924700;74;21604;-55
2023/04/24 05:18:36;;;;;;;12.98;7.92;;;10.80;93.40;;;;;;1924507;74;21224;-55
2023/04/24 05:21:07;;;;;;;12.07;7.97;;;10.90;93.40;;;;;;1924554;74;21213;-55
2023/04/24 05:23:37;;;;;;;13.60;8.55;;;10.90;93.30;;;;;;1924524;74;21210;-55
2023/04/24 05:26:07;;;;;;;13.43;7.17;;;10.90;93.20;;;;;;1924576;74;21185;-54
2023/04/24 05:28:36;;;;;;;8.23;6.50;;;10.90;93.20;;;;;;1924591;74;21183;-55
2023/04/24 05:31:07;;;;;;;23.60;8.23;;;11.00;93.10;;;;;;1924356;74;21303;-55
2023/04/24 05:33:37;;;;;;;14.98;7.80;;;11.00;93.00;;;;;;1924659;74;21213;-54
2023/04/24 05:36:07;;;;;;;9.75;6.87;;;11.00;93.10;;;;;;1924618;74;21169;-55
2023/04/24 05:38:37;;;;;;;10.28;7.05;;;11.00;93.30;;;;;;1924552;74;21299;-54
2023/04/24 05:41:06;;;;;;;11.22;7.83;;;11.00;93.30;;;;;;1924816;74;21338;-55
2023/04/24 05:43:36;;;;;;;8.48;6.78;;;11.00;93.00;;;;;;1924791;74;21181;-55
2023/04/24 05:46:05;;;;;;;15.88;8.83;;;11.00;93.40;;;;;;1924759;74;21264;-55
2023/04/24 05:48:35;;;;;;;14.18;7.95;;;11.00;93.40;;;;;;1924821;74;21098;-55
2023/04/24 05:51:05;;;;;;;8.78;7.67;;;11.00;93.30;;;;;;1924773;74;20999;-55
2023/04/24 05:53:34;;;;;;;10.10;7.33;;;11.10;93.30;;;;;;1924613;74;21126;-55
2023/04/24 05:56:04;;;;;;;9.40;7.03;;;11.10;93.30;;;;;;1924818;74;21007;-56
2023/04/24 05:58:33;;;;;;;10.48;6.80;;;11.10;93.30;;;;;;1924676;74;21178;-55
2023/04/24 06:01:03;;;;;;;9.00;7.00;;;11.20;93.30;;;;;;1924632;74;21211;-55
2023/04/24 06:03:32;;;;;;;8.80;6.90;;;11.20;93.20;;;;;;1924441;74;21252;-55
2023/04/24 06:06:01;;;;;;;10.10;7.35;;;11.30;93.30;;;;;;1924357;74;21207;-55
2023/04/24 06:08:31;;;;;;;23.70;15.00;;;11.30;93.40;;;;;;1924447;74;21442;-55
2023/04/24 06:11:00;;;;;;;12.95;8.38;;;11.30;93.30;;;;;;1924510;74;21494;-55
2023/04/24 06:13:29;;;;;;;12.88;7.83;;;11.30;93.30;;;;;;1924700;74;21104;-54
2023/04/24 06:16:06;;;;;;;13.48;8.53;;;11.40;93.40;;;;;;1854554;74;21153;-55
2023/04/24 06:18:37;;;;;;;13.60;7.67;;;11.40;93.40;;;;;;1924314;74;21251;-54
2023/04/24 06:21:06;;;;;;;11.40;8.45;;;11.40;93.40;;;;;;1924590;74;21200;-55
2023/04/24 06:23:36;;;;;;;14.35;8.08;;;11.50;93.40;;;;;;1924632;74;21131;-55
2023/04/24 06:26:05;;;;;;;12.93;8.68;;;11.60;93.50;;;;;;1924606;74;21086;-53
2023/04/24 06:28:34;;;;;;;18.00;9.73;;;11.70;93.50;;;;;;1924546;74;21138;-55
2023/04/24 06:31:04;;;;;;;11.93;8.60;;;11.80;93.50;;;;;;1924659;74;21259;-54
2023/04/24 06:33:34;;;;;;;14.13;10.65;;;11.90;93.40;;;;;;1924547;74;21287;-55
2023/04/24 06:36:03;;;;;;;14.40;8.68;;;11.90;93.30;;;;;;1924721;74;21134;-55
2023/04/24 06:38:33;;;;;;;34.03;19.50;;;11.90;93.40;;;;;;1924547;74;21132;-55
2023/04/24 06:41:04;;;;;;;13.43;9.43;;;12.00;93.30;;;;;;1924564;74;21494;-55
2023/04/24 06:43:33;;;;;;;14.05;10.82;;;12.00;93.30;;;;;;1924521;74;21597;-54
2023/04/24 06:46:03;;;;;;;14.75;10.35;;;12.00;93.20;;;;;;1924496;74;21190;-55
2023/04/24 06:48:32;;;;;;;20.00;12.10;;;12.00;93.10;;;;;;1924527;74;21169;-55
2023/04/24 06:51:01;;;;;;;26.20;14.28;;;12.00;93.10;;;;;;1924471;74;21201;-53
2023/04/24 06:53:30;;;;;;;19.17;12.93;;;12.00;93.00;;;;;;1924493;74;21156;-54
2023/04/24 06:55:59;;;;;;;20.65;13.10;;;11.90;93.30;;;;;;1924481;74;21125;-55
2023/04/24 06:58:28;;;;;;;19.95;13.88;;;11.90;93.30;;;;;;1924510;74;21204;-54
2023/04/24 07:00:57;;;;;;;20.80;14.23;;;11.90;93.30;;;;;;1924857;74;21094;-55
2023/04/24 07:03:26;;;;;;;26.82;16.00;;;11.80;93.50;;;;;;1924730;74;21277;-55
2023/04/24 07:05:57;;;;;;;18.87;14.18;;;11.80;93.50;;;;;;1924739;74;21291;-55
2023/04/24 07:08:26;;;;;;;26.57;16.00;;;11.80;93.50;;;;;;1924794;74;21193;-55
2023/04/24 07:10:55;;;;;;;23.87;15.15;;;11.80;93.70;;;;;;1924720;74;21223;-55
2023/04/24 07:13:26;;;;;;;21.33;13.43;;;11.90;93.80;;;;;;1924724;74;21188;-54
2023/04/24 07:15:56;;;;;;;17.73;12.37;;;11.90;93.80;;;;;;1924546;74;21066;-55
2023/04/24 07:18:25;;;;;;;18.67;12.53;;;12.00;93.80;;;;;;1924522;74;21082;-55
2023/04/24 07:20:53;;;;;;;15.23;10.13;;;12.00;93.80;;;;;;1924522;74;21481;-54
2023/04/24 07:23:22;;;;;;;16.12;10.00;;;12.00;93.90;;;;;;1906553;74;21138;-55
2023/04/24 07:25:52;;;;;;;17.10;9.63;;;12.10;94.30;;;;;;1905372;75;21625;-54
2023/04/24 07:28:21;;;;;;;15.00;10.15;;;12.20;94.20;;;;;;1905343;75;21190;-54
2023/04/24 07:30:50;;;;;;;13.20;8.48;;;12.20;94.10;;;;;;1905242;75;21450;-54
2023/04/24 07:33:19;;;;;;;14.20;9.58;;;12.30;93.70;;;;;;1905269;75;21154;-55
2023/04/24 07:35:49;;;;;;;10.98;8.80;;;12.30;93.60;;;;;;1905351;75;21063;-54
2023/04/24 07:38:25;;;;;;;13.35;8.33;;;12.40;93.50;;;;;;1905286;75;21197;-54
2023/04/24 07:40:49;;;;;;;12.23;8.08;;;12.40;93.50;;;;;;1903837;74;21607;-54
2023/04/24 07:43:19;;;;;;;12.20;8.95;;;12.40;93.50;;;;;;1905491;74;21193;-54
2023/04/24 07:45:48;;;;;;;13.05;8.18;;;12.50;93.50;;;;;;1905377;75;21340;-55
2023/04/24 07:48:17;;;;;;;15.50;8.65;;;12.50;93.50;;;;;;1905347;75;21130;-54
2023/04/24 07:50:47;;;;;;;11.60;8.70;;;12.50;93.30;;;;;;1905395;75;21557;-54
2023/04/24 07:53:16;;;;;;;12.37;8.45;;;12.50;93.30;;;;;;1898253;75;21261;-54
2023/04/24 07:55:45;;;;;;;11.05;8.15;;;12.50;93.30;;;;;;1892495;75;21190;-57
2023/04/24 07:58:15;;;;;;;12.25;8.05;;;12.50;93.30;;;;;;1881142;75;21738;-54
2023/04/24 08:00:43;;;;;;;11.65;8.45;;;12.50;93.30;;;;;;1886822;74;21283;-55
2023/04/24 08:03:12;;;;;;;12.70;9.40;;;12.60;93.30;;;;;;1887808;75;21207;-54
2023/04/24 08:05:42;;;;;;;10.48;8.35;;;12.60;93.20;;;;;;1891777;75;21513;-52
2023/04/24 08:08:11;;;;;;;11.80;8.60;;;12.60;93.20;;;;;;1903698;75;21261;-54
2023/04/24 08:10:40;;;;;;;12.15;8.70;;;12.70;93.30;;;;;;1904578;75;21136;-56
2023/04/24 08:13:11;;;;;;;10.58;7.92;;;12.80;93.30;;;;;;1904597;74;21110;-56
2023/04/24 08:15:40;;;;;;;11.48;8.68;;;12.80;93.20;;;;;;1904546;75;21067;-52
2023/04/24 08:18:11;;;;;;;13.53;9.33;;;12.90;93.30;;;;;;1904653;75;21101;-56
2023/04/24 08:20:40;;;;;;;12.47;8.35;;;12.90;93.20;;;;;;1904739;74;21394;-56
2023/04/24 08:23:09;;;;;;;11.20;8.25;;;12.90;93.20;;;;;;1904423;75;21278;-56
2023/04/24 08:25:38;;;;;;;13.22;8.23;;;12.90;93.20;;;;;;1904461;75;21265;-57
